sensor_id;sensor_type;location;lat;lon;timestamp;P1;durP1;ratioP1;P2;durP2;ratioP2
72406;SDS011;60396;47.550;18.828;2023-12-29T00:02:03;15.88;;;5.93;;
72406;SDS011;60396;47.550;18.828;2023-12-29T00:04:31;13.32;;;5.35;;
72406;SDS011;60396;47.550;18.828;2023-12-29T00:07:01;13.43;;;6.18;;
72406;SDS011;60396;47.550;18.828;2023-12-29T00:09:30;11.87;;;5.27;;
72406;SDS011;60396;47.550;18.828;2023-12-29T00:11:58;12.65;;;5.93;;
72406;SDS011;60396;47.550;18.828;2023-12-29T00:14:25;16.70;;;6.28;;
72406;SDS011;60396;47.550;18.828;2023-12-29T00:16:53;14.00;;;6.40;;
72406;SDS011;60396;47.550;18.828;2023-12-29T00:19:25;12.63;;;6.05;;
72406;SDS011;60396;47.550;18.828;2023-12-29T00:21:53;14.23;;;5.97;;
72406;SDS011;60396;47.550;18.828;2023-12-29T00:24:20;14.23;;;6.00;;
72406;SDS011;60396;47.550;18.828;2023-12-29T00:26:48;15.07;;;7.18;;
72406;SDS011;60396;47.550;18.828;2023-12-29T00:29:15;18.60;;;6.53;;
72406;SDS011;60396;47.550;18.828;2023-12-29T00:31:43;14.45;;;6.68;;
72406;SDS011;60396;47.550;18.828;2023-12-29T00:34:11;12.73;;;5.90;;
72406;SDS011;60396;47.550;18.828;2023-12-29T00:36:40;14.05;;;6.45;;
72406;SDS011;60396;47.550;18.828;2023-12-29T00:39:07;13.55;;;5.95;;
72406;SDS011;60396;47.550;18.828;2023-12-29T00:41:35;13.35;;;5.68;;
72406;SDS011;60396;47.550;18.828;2023-12-29T00:44:04;13.45;;;6.10;;
72406;SDS011;60396;47.550;18.828;2023-12-29T00:46:34;14.30;;;6.17;;
72406;SDS011;60396;47.550;18.828;2023-12-29T00:49:02;13.48;;;6.18;;
72406;SDS011;60396;47.550;18.828;2023-12-29T00:51:30;16.77;;;6.18;;
72406;SDS011;60396;47.550;18.828;2023-12-29T00:53:58;17.20;;;6.50;;
72406;SDS011;60396;47.550;18.828;2023-12-29T00:56:26;16.62;;;6.40;;
72406;SDS011;60396;47.550;18.828;2023-12-29T00:58:54;14.67;;;6.20;;
72406;SDS011;60396;47.550;18.828;2023-12-29T01:01:22;14.00;;;6.32;;
72406;SDS011;60396;47.550;18.828;2023-12-29T01:03:50;13.18;;;5.87;;
72406;SDS011;60396;47.550;18.828;2023-12-29T01:06:22;16.42;;;6.45;;
72406;SDS011;60396;47.550;18.828;2023-12-29T01:08:50;14.23;;;6.78;;
72406;SDS011;60396;47.550;18.828;2023-12-29T01:11:18;16.60;;;6.87;;
72406;SDS011;60396;47.550;18.828;2023-12-29T01:13:46;15.95;;;6.00;;
72406;SDS011;60396;47.550;18.828;2023-12-29T01:16:13;13.55;;;6.50;;
72406;SDS011;60396;47.550;18.828;2023-12-29T01:18:41;16.15;;;6.97;;
72406;SDS011;60396;47.550;18.828;2023-12-29T01:21:09;14.77;;;6.05;;
72406;SDS011;60396;47.550;18.828;2023-12-29T01:23:37;12.57;;;5.73;;
72406;SDS011;60396;47.550;18.828;2023-12-29T01:26:05;15.95;;;5.93;;
72406;SDS011;60396;47.550;18.828;2023-12-29T01:28:33;12.50;;;6.12;;
72406;SDS011;60396;47.550;18.828;2023-12-29T01:31:01;13.45;;;6.28;;
72406;SDS011;60396;47.550;18.828;2023-12-29T01:33:29;13.45;;;5.60;;
72406;SDS011;60396;47.550;18.828;2023-12-29T01:35:56;14.83;;;5.87;;
72406;SDS011;60396;47.550;18.828;2023-12-29T01:38:29;16.48;;;6.10;;
72406;SDS011;60396;47.550;18.828;2023-12-29T01:40:57;14.27;;;6.28;;
72406;SDS011;60396;47.550;18.828;2023-12-29T01:43:25;12.48;;;5.90;;
72406;SDS011;60396;47.550;18.828;2023-12-29T01:45:53;12.68;;;6.22;;
72406;SDS011;60396;47.550;18.828;2023-12-29T01:48:24;13.50;;;5.90;;
72406;SDS011;60396;47.550;18.828;2023-12-29T01:50:53;12.95;;;5.37;;
72406;SDS011;60396;47.550;18.828;2023-12-29T01:53:22;12.35;;;5.65;;
72406;SDS011;60396;47.550;18.828;2023-12-29T01:56:05;11.52;;;5.32;;
72406;SDS011;60396;47.550;18.828;2023-12-29T01:58:35;13.38;;;6.00;;
72406;SDS011;60396;47.550;18.828;2023-12-29T02:01:03;12.40;;;5.93;;
72406;SDS011;60396;47.550;18.828;2023-12-29T02:03:34;15.35;;;5.50;;
72406;SDS011;60396;47.550;18.828;2023-12-29T02:06:02;16.17;;;5.50;;
72406;SDS011;60396;47.550;18.828;2023-12-29T02:08:31;14.40;;;5.95;;
72406;SDS011;60396;47.550;18.828;2023-12-29T02:10:59;14.13;;;5.93;;
72406;SDS011;60396;47.550;18.828;2023-12-29T02:13:28;13.70;;;5.83;;
72406;SDS011;60396;47.550;18.828;2023-12-29T02:15:56;12.73;;;5.85;;
72406;SDS011;60396;47.550;18.828;2023-12-29T02:18:29;14.50;;;6.07;;
72406;SDS011;60396;47.550;18.828;2023-12-29T02:20:58;13.32;;;6.07;;
72406;SDS011;60396;47.550;18.828;2023-12-29T02:23:25;13.45;;;5.85;;
72406;SDS011;60396;47.550;18.828;2023-12-29T02:25:53;13.93;;;6.03;;
72406;SDS011;60396;47.550;18.828;2023-12-29T02:28:24;16.77;;;6.28;;
72406;SDS011;60396;47.550;18.828;2023-12-29T02:33:41;15.73;;;5.70;;
72406;SDS011;60396;47.550;18.828;2023-12-29T02:36:10;12.68;;;5.80;;
72406;SDS011;60396;47.550;18.828;2023-12-29T02:38:40;11.70;;;5.53;;
72406;SDS011;60396;47.550;18.828;2023-12-29T02:41:08;14.52;;;5.85;;
72406;SDS011;60396;47.550;18.828;2023-12-29T02:43:35;15.23;;;5.93;;
72406;SDS011;60396;47.550;18.828;2023-12-29T02:46:03;11.10;;;5.18;;
72406;SDS011;60396;47.550;18.828;2023-12-29T02:48:31;11.30;;;5.60;;
72406;SDS011;60396;47.550;18.828;2023-12-29T02:51:00;11.37;;;5.23;;
72406;SDS011;60396;47.550;18.828;2023-12-29T02:53:28;12.35;;;5.90;;
72406;SDS011;60396;47.550;18.828;2023-12-29T02:55:57;12.48;;;5.57;;
72406;SDS011;60396;47.550;18.828;2023-12-29T02:58:25;15.35;;;5.95;;
72406;SDS011;60396;47.550;18.828;2023-12-29T03:00:54;12.30;;;5.30;;
72406;SDS011;60396;47.550;18.828;2023-12-29T03:03:22;13.37;;;6.00;;
72406;SDS011;60396;47.550;18.828;2023-12-29T03:05:49;12.68;;;5.40;;
72406;SDS011;60396;47.550;18.828;2023-12-29T03:08:18;10.05;;;5.22;;
72406;SDS011;60396;47.550;18.828;2023-12-29T03:10:46;12.10;;;4.85;;
72406;SDS011;60396;47.550;18.828;2023-12-29T03:13:14;12.10;;;5.05;;
72406;SDS011;60396;47.550;18.828;2023-12-29T03:15:42;12.07;;;5.10;;
72406;SDS011;60396;47.550;18.828;2023-12-29T03:18:10;11.65;;;5.37;;
72406;SDS011;60396;47.550;18.828;2023-12-29T03:20:39;11.60;;;5.45;;
72406;SDS011;60396;47.550;18.828;2023-12-29T03:23:06;11.75;;;5.60;;
72406;SDS011;60396;47.550;18.828;2023-12-29T03:25:34;12.70;;;5.25;;
72406;SDS011;60396;47.550;18.828;2023-12-29T03:28:02;13.30;;;5.00;;
72406;SDS011;60396;47.550;18.828;2023-12-29T03:30:30;12.10;;;5.50;;
72406;SDS011;60396;47.550;18.828;2023-12-29T03:32:58;13.32;;;6.15;;
72406;SDS011;60396;47.550;18.828;2023-12-29T03:35:29;14.52;;;6.00;;
72406;SDS011;60396;47.550;18.828;2023-12-29T03:37:57;13.18;;;6.07;;
72406;SDS011;60396;47.550;18.828;2023-12-29T03:40:25;13.77;;;5.73;;
72406;SDS011;60396;47.550;18.828;2023-12-29T03:42:53;17.25;;;6.20;;
72406;SDS011;60396;47.550;18.828;2023-12-29T03:45:21;13.95;;;6.57;;
72406;SDS011;60396;47.550;18.828;2023-12-29T03:47:49;12.07;;;5.93;;
72406;SDS011;60396;47.550;18.828;2023-12-29T03:50:17;11.82;;;5.85;;
72406;SDS011;60396;47.550;18.828;2023-12-29T03:52:45;13.47;;;5.53;;
72406;SDS011;60396;47.550;18.828;2023-12-29T03:55:13;12.98;;;5.28;;
72406;SDS011;60396;47.550;18.828;2023-12-29T03:57:42;11.40;;;5.15;;
72406;SDS011;60396;47.550;18.828;2023-12-29T04:00:13;11.05;;;5.15;;
72406;SDS011;60396;47.550;18.828;2023-12-29T04:02:43;10.85;;;5.43;;
72406;SDS011;60396;47.550;18.828;2023-12-29T04:05:11;10.37;;;4.97;;
72406;SDS011;60396;47.550;18.828;2023-12-29T04:07:39;13.10;;;5.75;;
72406;SDS011;60396;47.550;18.828;2023-12-29T04:10:08;12.23;;;5.62;;
72406;SDS011;60396;47.550;18.828;2023-12-29T04:12:37;11.45;;;6.15;;
72406;SDS011;60396;47.550;18.828;2023-12-29T04:15:04;13.57;;;6.18;;
72406;SDS011;60396;47.550;18.828;2023-12-29T04:17:33;12.97;;;5.93;;
72406;SDS011;60396;47.550;18.828;2023-12-29T04:20:01;15.82;;;5.78;;
72406;SDS011;60396;47.550;18.828;2023-12-29T04:22:29;14.23;;;6.03;;
72406;SDS011;60396;47.550;18.828;2023-12-29T04:24:57;13.10;;;5.97;;
72406;SDS011;60396;47.550;18.828;2023-12-29T04:27:25;12.73;;;5.72;;
72406;SDS011;60396;47.550;18.828;2023-12-29T04:29:53;16.20;;;6.13;;
72406;SDS011;60396;47.550;18.828;2023-12-29T04:32:23;16.23;;;6.72;;
72406;SDS011;60396;47.550;18.828;2023-12-29T04:34:50;13.30;;;5.95;;
72406;SDS011;60396;47.550;18.828;2023-12-29T04:37:18;13.25;;;6.10;;
72406;SDS011;60396;47.550;18.828;2023-12-29T04:39:46;14.45;;;6.53;;
72406;SDS011;60396;47.550;18.828;2023-12-29T04:42:14;11.90;;;5.57;;
72406;SDS011;60396;47.550;18.828;2023-12-29T04:44:42;13.57;;;6.07;;
72406;SDS011;60396;47.550;18.828;2023-12-29T04:47:10;12.55;;;5.75;;
72406;SDS011;60396;47.550;18.828;2023-12-29T04:49:38;12.90;;;5.10;;
72406;SDS011;60396;47.550;18.828;2023-12-29T04:52:06;11.18;;;5.87;;
72406;SDS011;60396;47.550;18.828;2023-12-29T04:54:34;11.87;;;5.87;;
72406;SDS011;60396;47.550;18.828;2023-12-29T04:57:02;14.52;;;5.32;;
72406;SDS011;60396;47.550;18.828;2023-12-29T04:59:30;13.13;;;5.97;;
72406;SDS011;60396;47.550;18.828;2023-12-29T05:01:58;12.95;;;5.93;;
72406;SDS011;60396;47.550;18.828;2023-12-29T05:04:26;14.02;;;5.90;;
72406;SDS011;60396;47.550;18.828;2023-12-29T05:06:53;14.50;;;5.63;;
72406;SDS011;60396;47.550;18.828;2023-12-29T05:09:21;13.18;;;5.85;;
72406;SDS011;60396;47.550;18.828;2023-12-29T05:11:49;13.68;;;5.90;;
72406;SDS011;60396;47.550;18.828;2023-12-29T05:14:17;14.52;;;5.15;;
72406;SDS011;60396;47.550;18.828;2023-12-29T05:16:45;14.50;;;5.90;;
72406;SDS011;60396;47.550;18.828;2023-12-29T05:19:13;15.13;;;5.53;;
72406;SDS011;60396;47.550;18.828;2023-12-29T05:21:41;13.80;;;5.78;;
72406;SDS011;60396;47.550;18.828;2023-12-29T05:24:10;12.50;;;5.53;;
72406;SDS011;60396;47.550;18.828;2023-12-29T05:26:38;10.82;;;5.07;;
72406;SDS011;60396;47.550;18.828;2023-12-29T05:29:05;10.60;;;4.85;;
72406;SDS011;60396;47.550;18.828;2023-12-29T05:31:33;18.27;;;6.40;;
72406;SDS011;60396;47.550;18.828;2023-12-29T05:34:01;11.90;;;5.20;;
72406;SDS011;60396;47.550;18.828;2023-12-29T05:36:29;12.00;;;5.30;;
72406;SDS011;60396;47.550;18.828;2023-12-29T05:38:57;14.18;;;5.78;;
72406;SDS011;60396;47.550;18.828;2023-12-29T05:41:25;11.65;;;5.53;;
72406;SDS011;60396;47.550;18.828;2023-12-29T05:43:53;13.00;;;5.87;;
72406;SDS011;60396;47.550;18.828;2023-12-29T05:46:21;10.73;;;5.10;;
72406;SDS011;60396;47.550;18.828;2023-12-29T05:48:49;15.77;;;5.18;;
72406;SDS011;60396;47.550;18.828;2023-12-29T05:51:19;11.57;;;5.22;;
72406;SDS011;60396;47.550;18.828;2023-12-29T05:53:48;15.45;;;5.32;;
72406;SDS011;60396;47.550;18.828;2023-12-29T05:56:15;11.50;;;5.30;;
72406;SDS011;60396;47.550;18.828;2023-12-29T05:58:43;13.25;;;5.35;;
72406;SDS011;60396;47.550;18.828;2023-12-29T06:01:11;12.25;;;4.97;;
72406;SDS011;60396;47.550;18.828;2023-12-29T06:03:39;13.20;;;5.62;;
72406;SDS011;60396;47.550;18.828;2023-12-29T06:06:07;13.27;;;5.20;;
72406;SDS011;60396;47.550;18.828;2023-12-29T06:08:35;13.53;;;6.00;;
72406;SDS011;60396;47.550;18.828;2023-12-29T06:11:03;13.23;;;5.75;;
72406;SDS011;60396;47.550;18.828;2023-12-29T06:13:31;12.40;;;5.10;;
72406;SDS011;60396;47.550;18.828;2023-12-29T06:15:59;12.80;;;5.28;;
72406;SDS011;60396;47.550;18.828;2023-12-29T06:18:27;10.73;;;5.12;;
72406;SDS011;60396;47.550;18.828;2023-12-29T06:20:55;12.30;;;5.60;;
72406;SDS011;60396;47.550;18.828;2023-12-29T06:23:23;10.88;;;4.87;;
72406;SDS011;60396;47.550;18.828;2023-12-29T06:25:53;12.90;;;5.97;;
72406;SDS011;60396;47.550;18.828;2023-12-29T06:28:21;16.42;;;5.90;;
72406;SDS011;60396;47.550;18.828;2023-12-29T06:30:48;10.48;;;5.00;;
72406;SDS011;60396;47.550;18.828;2023-12-29T06:33:17;11.27;;;5.60;;
72406;SDS011;60396;47.550;18.828;2023-12-29T06:35:48;11.82;;;5.65;;
72406;SDS011;60396;47.550;18.828;2023-12-29T06:38:16;12.68;;;5.35;;
72406;SDS011;60396;47.550;18.828;2023-12-29T06:40:44;11.23;;;5.03;;
72406;SDS011;60396;47.550;18.828;2023-12-29T06:43:12;10.30;;;4.55;;
72406;SDS011;60396;47.550;18.828;2023-12-29T06:45:41;10.07;;;4.47;;
72406;SDS011;60396;47.550;18.828;2023-12-29T06:48:09;10.50;;;4.22;;
72406;SDS011;60396;47.550;18.828;2023-12-29T06:50:37;9.20;;;3.60;;
72406;SDS011;60396;47.550;18.828;2023-12-29T06:53:05;10.13;;;3.30;;
72406;SDS011;60396;47.550;18.828;2023-12-29T06:55:33;9.18;;;3.42;;
72406;SDS011;60396;47.550;18.828;2023-12-29T06:58:01;10.67;;;3.27;;
72406;SDS011;60396;47.550;18.828;2023-12-29T07:00:29;8.90;;;3.53;;
72406;SDS011;60396;47.550;18.828;2023-12-29T07:02:57;9.05;;;3.55;;
72406;SDS011;60396;47.550;18.828;2023-12-29T07:05:25;9.30;;;3.60;;
72406;SDS011;60396;47.550;18.828;2023-12-29T07:07:53;11.88;;;4.12;;
72406;SDS011;60396;47.550;18.828;2023-12-29T07:10:21;8.87;;;3.60;;
72406;SDS011;60396;47.550;18.828;2023-12-29T07:12:49;10.43;;;4.22;;
72406;SDS011;60396;47.550;18.828;2023-12-29T07:15:18;11.70;;;4.20;;
72406;SDS011;60396;47.550;18.828;2023-12-29T07:17:46;15.02;;;5.72;;
72406;SDS011;60396;47.550;18.828;2023-12-29T07:20:13;11.95;;;4.12;;
72406;SDS011;60396;47.550;18.828;2023-12-29T07:22:41;11.23;;;3.83;;
72406;SDS011;60396;47.550;18.828;2023-12-29T07:25:10;9.18;;;3.47;;
72406;SDS011;60396;47.550;18.828;2023-12-29T07:27:39;13.90;;;4.35;;
72406;SDS011;60396;47.550;18.828;2023-12-29T07:30:07;10.43;;;3.92;;
72406;SDS011;60396;47.550;18.828;2023-12-29T07:32:36;8.65;;;3.70;;
72406;SDS011;60396;47.550;18.828;2023-12-29T07:35:04;9.63;;;4.40;;
72406;SDS011;60396;47.550;18.828;2023-12-29T07:37:32;10.00;;;4.62;;
72406;SDS011;60396;47.550;18.828;2023-12-29T07:40:00;9.85;;;3.70;;
72406;SDS011;60396;47.550;18.828;2023-12-29T07:42:28;12.48;;;3.95;;
72406;SDS011;60396;47.550;18.828;2023-12-29T07:44:56;12.32;;;5.43;;
72406;SDS011;60396;47.550;18.828;2023-12-29T07:47:24;11.43;;;4.87;;
72406;SDS011;60396;47.550;18.828;2023-12-29T07:49:52;13.27;;;6.55;;
72406;SDS011;60396;47.550;18.828;2023-12-29T07:52:20;15.93;;;7.05;;
72406;SDS011;60396;47.550;18.828;2023-12-29T07:54:48;23.75;;;11.43;;
72406;SDS011;60396;47.550;18.828;2023-12-29T07:57:16;24.75;;;12.10;;
72406;SDS011;60396;47.550;18.828;2023-12-29T07:59:44;18.93;;;10.37;;
72406;SDS011;60396;47.550;18.828;2023-12-29T08:02:12;22.52;;;11.52;;
72406;SDS011;60396;47.550;18.828;2023-12-29T08:04:40;33.97;;;15.00;;
72406;SDS011;60396;47.550;18.828;2023-12-29T08:07:08;26.92;;;13.73;;
72406;SDS011;60396;47.550;18.828;2023-12-29T08:09:37;26.45;;;14.45;;
72406;SDS011;60396;47.550;18.828;2023-12-29T08:12:05;28.40;;;14.43;;
72406;SDS011;60396;47.550;18.828;2023-12-29T08:14:33;29.00;;;14.02;;
72406;SDS011;60396;47.550;18.828;2023-12-29T08:17:01;29.70;;;16.40;;
72406;SDS011;60396;47.550;18.828;2023-12-29T08:19:29;28.52;;;15.77;;
72406;SDS011;60396;47.550;18.828;2023-12-29T08:21:57;27.73;;;15.43;;
72406;SDS011;60396;47.550;18.828;2023-12-29T08:24:25;25.90;;;14.23;;
72406;SDS011;60396;47.550;18.828;2023-12-29T08:26:53;25.00;;;13.88;;
72406;SDS011;60396;47.550;18.828;2023-12-29T08:29:20;25.30;;;12.37;;
72406;SDS011;60396;47.550;18.828;2023-12-29T08:31:49;25.20;;;12.68;;
72406;SDS011;60396;47.550;18.828;2023-12-29T08:34:17;22.05;;;11.55;;
72406;SDS011;60396;47.550;18.828;2023-12-29T08:36:47;16.70;;;8.20;;
72406;SDS011;60396;47.550;18.828;2023-12-29T08:39:14;23.50;;;12.05;;
72406;SDS011;60396;47.550;18.828;2023-12-29T08:41:43;28.00;;;14.65;;
72406;SDS011;60396;47.550;18.828;2023-12-29T08:44:10;40.95;;;21.15;;
72406;SDS011;60396;47.550;18.828;2023-12-29T08:46:38;40.05;;;23.62;;
72406;SDS011;60396;47.550;18.828;2023-12-29T08:49:06;47.47;;;26.70;;
72406;SDS011;60396;47.550;18.828;2023-12-29T08:51:34;40.17;;;21.55;;
72406;SDS011;60396;47.550;18.828;2023-12-29T08:54:02;36.13;;;20.25;;
72406;SDS011;60396;47.550;18.828;2023-12-29T08:56:30;36.88;;;19.65;;
72406;SDS011;60396;47.550;18.828;2023-12-29T08:58:58;40.85;;;21.55;;
72406;SDS011;60396;47.550;18.828;2023-12-29T09:01:26;38.43;;;20.83;;
72406;SDS011;60396;47.550;18.828;2023-12-29T09:03:54;37.00;;;21.05;;
72406;SDS011;60396;47.550;18.828;2023-12-29T09:06:22;38.13;;;20.62;;
72406;SDS011;60396;47.550;18.828;2023-12-29T09:08:50;32.15;;;18.33;;
72406;SDS011;60396;47.550;18.828;2023-12-29T09:11:18;29.77;;;16.15;;
72406;SDS011;60396;47.550;18.828;2023-12-29T09:13:45;31.37;;;16.23;;
72406;SDS011;60396;47.550;18.828;2023-12-29T09:16:13;30.35;;;17.83;;
72406;SDS011;60396;47.550;18.828;2023-12-29T09:18:41;30.42;;;16.90;;
72406;SDS011;60396;47.550;18.828;2023-12-29T09:21:09;30.67;;;18.65;;
72406;SDS011;60396;47.550;18.828;2023-12-29T09:23:37;36.42;;;19.15;;
72406;SDS011;60396;47.550;18.828;2023-12-29T09:26:06;34.10;;;19.07;;
72406;SDS011;60396;47.550;18.828;2023-12-29T09:28:34;32.20;;;19.02;;
72406;SDS011;60396;47.550;18.828;2023-12-29T09:31:01;32.67;;;19.20;;
72406;SDS011;60396;47.550;18.828;2023-12-29T09:33:29;31.12;;;18.90;;
72406;SDS011;60396;47.550;18.828;2023-12-29T09:35:57;32.20;;;18.50;;
72406;SDS011;60396;47.550;18.828;2023-12-29T09:38:25;38.30;;;19.63;;
72406;SDS011;60396;47.550;18.828;2023-12-29T09:40:53;34.20;;;19.35;;
72406;SDS011;60396;47.550;18.828;2023-12-29T09:43:22;37.03;;;21.23;;
72406;SDS011;60396;47.550;18.828;2023-12-29T09:45:50;36.13;;;20.85;;
72406;SDS011;60396;47.550;18.828;2023-12-29T09:48:20;32.72;;;18.23;;
72406;SDS011;60396;47.550;18.828;2023-12-29T09:50:49;33.60;;;19.13;;
72406;SDS011;60396;47.550;18.828;2023-12-29T09:53:17;34.05;;;18.20;;
72406;SDS011;60396;47.550;18.828;2023-12-29T09:55:49;29.55;;;15.88;;
72406;SDS011;60396;47.550;18.828;2023-12-29T09:58:19;27.98;;;17.35;;
72406;SDS011;60396;47.550;18.828;2023-12-29T10:00:49;27.50;;;14.85;;
72406;SDS011;60396;47.550;18.828;2023-12-29T10:03:18;29.13;;;16.10;;
72406;SDS011;60396;47.550;18.828;2023-12-29T10:05:48;31.17;;;17.95;;
72406;SDS011;60396;47.550;18.828;2023-12-29T10:08:18;32.03;;;19.25;;
72406;SDS011;60396;47.550;18.828;2023-12-29T10:10:48;35.20;;;19.70;;
72406;SDS011;60396;47.550;18.828;2023-12-29T10:13:17;25.27;;;14.80;;
72406;SDS011;60396;47.550;18.828;2023-12-29T10:21:02;28.20;;;15.10;;
72406;SDS011;60396;47.550;18.828;2023-12-29T10:23:40;26.83;;;15.10;;
72406;SDS011;60396;47.550;18.828;2023-12-29T10:26:11;27.17;;;14.90;;
72406;SDS011;60396;47.550;18.828;2023-12-29T10:28:39;24.63;;;13.90;;
72406;SDS011;60396;47.550;18.828;2023-12-29T10:31:07;22.92;;;12.60;;
72406;SDS011;60396;47.550;18.828;2023-12-29T10:33:37;21.98;;;12.70;;
72406;SDS011;60396;47.550;18.828;2023-12-29T10:36:06;19.33;;;11.07;;
72406;SDS011;60396;47.550;18.828;2023-12-29T10:38:38;20.88;;;11.82;;
72406;SDS011;60396;47.550;18.828;2023-12-29T10:43:38;24.00;;;13.02;;
72406;SDS011;60396;47.550;18.828;2023-12-29T10:46:06;22.73;;;12.55;;
72406;SDS011;60396;47.550;18.828;2023-12-29T10:48:38;21.17;;;11.73;;
72406;SDS011;60396;47.550;18.828;2023-12-29T10:51:07;20.80;;;11.90;;
72406;SDS011;60396;47.550;18.828;2023-12-29T10:53:35;20.73;;;12.00;;
72406;SDS011;60396;47.550;18.828;2023-12-29T10:56:17;21.48;;;12.43;;
72406;SDS011;60396;47.550;18.828;2023-12-29T10:59:04;20.35;;;12.20;;
72406;SDS011;60396;47.550;18.828;2023-12-29T11:01:34;19.55;;;10.57;;
72406;SDS011;60396;47.550;18.828;2023-12-29T11:04:08;17.33;;;9.25;;
72406;SDS011;60396;47.550;18.828;2023-12-29T11:06:40;17.30;;;8.50;;
72406;SDS011;60396;47.550;18.828;2023-12-29T11:09:11;20.08;;;10.02;;
72406;SDS011;60396;47.550;18.828;2023-12-29T11:11:39;16.55;;;9.43;;
72406;SDS011;60396;47.550;18.828;2023-12-29T11:14:08;16.50;;;8.55;;
72406;SDS011;60396;47.550;18.828;2023-12-29T11:16:37;15.70;;;8.25;;
72406;SDS011;60396;47.550;18.828;2023-12-29T11:19:07;17.23;;;8.73;;
72406;SDS011;60396;47.550;18.828;2023-12-29T11:21:40;17.95;;;8.55;;
72406;SDS011;60396;47.550;18.828;2023-12-29T11:24:12;17.48;;;7.45;;
72406;SDS011;60396;47.550;18.828;2023-12-29T11:26:50;15.70;;;7.32;;
72406;SDS011;60396;47.550;18.828;2023-12-29T11:29:19;14.30;;;7.72;;
72406;SDS011;60396;47.550;18.828;2023-12-29T11:31:47;17.17;;;7.47;;
72406;SDS011;60396;47.550;18.828;2023-12-29T11:34:25;14.98;;;7.78;;
72406;SDS011;60396;47.550;18.828;2023-12-29T11:37:02;14.68;;;6.97;;
72406;SDS011;60396;47.550;18.828;2023-12-29T11:39:54;14.13;;;6.65;;
72406;SDS011;60396;47.550;18.828;2023-12-29T11:42:33;12.80;;;5.85;;
72406;SDS011;60396;47.550;18.828;2023-12-29T11:48:03;14.57;;;7.45;;
72406;SDS011;60396;47.550;18.828;2023-12-29T11:50:33;12.13;;;6.43;;
72406;SDS011;60396;47.550;18.828;2023-12-29T11:53:05;12.75;;;6.40;;
72406;SDS011;60396;47.550;18.828;2023-12-29T11:55:34;14.05;;;6.37;;
72406;SDS011;60396;47.550;18.828;2023-12-29T11:58:25;12.17;;;6.67;;
72406;SDS011;60396;47.550;18.828;2023-12-29T12:00:57;13.75;;;6.82;;
72406;SDS011;60396;47.550;18.828;2023-12-29T12:03:26;13.30;;;6.37;;
72406;SDS011;60396;47.550;18.828;2023-12-29T12:05:55;13.07;;;6.07;;
72406;SDS011;60396;47.550;18.828;2023-12-29T12:08:36;11.15;;;6.28;;
72406;SDS011;60396;47.550;18.828;2023-12-29T12:11:41;17.73;;;9.87;;
72406;SDS011;60396;47.550;18.828;2023-12-29T12:14:01;17.83;;;9.38;;
72406;SDS011;60396;47.550;18.828;2023-12-29T12:19:13;12.50;;;5.72;;
72406;SDS011;60396;47.550;18.828;2023-12-29T12:21:42;13.82;;;6.80;;
72406;SDS011;60396;47.550;18.828;2023-12-29T12:24:14;14.33;;;7.30;;
72406;SDS011;60396;47.550;18.828;2023-12-29T12:26:43;12.27;;;5.95;;
72406;SDS011;60396;47.550;18.828;2023-12-29T12:29:12;14.35;;;6.87;;
72406;SDS011;60396;47.550;18.828;2023-12-29T12:31:57;14.32;;;7.22;;
72406;SDS011;60396;47.550;18.828;2023-12-29T12:34:25;13.30;;;7.32;;
72406;SDS011;60396;47.550;18.828;2023-12-29T12:36:54;9.40;;;4.67;;
72406;SDS011;60396;47.550;18.828;2023-12-29T12:39:37;10.35;;;4.87;;
72406;SDS011;60396;47.550;18.828;2023-12-29T12:42:09;9.48;;;4.47;;
72406;SDS011;60396;47.550;18.828;2023-12-29T12:44:47;11.00;;;4.65;;
72406;SDS011;60396;47.550;18.828;2023-12-29T12:47:26;11.07;;;4.45;;
72406;SDS011;60396;47.550;18.828;2023-12-29T12:49:55;10.93;;;5.20;;
72406;SDS011;60396;47.550;18.828;2023-12-29T12:52:23;12.43;;;6.03;;
72406;SDS011;60396;47.550;18.828;2023-12-29T12:54:52;13.23;;;6.55;;
72406;SDS011;60396;47.550;18.828;2023-12-29T12:57:21;16.10;;;7.05;;
72406;SDS011;60396;47.550;18.828;2023-12-29T12:59:49;15.93;;;8.50;;
72406;SDS011;60396;47.550;18.828;2023-12-29T13:02:18;15.73;;;7.80;;
72406;SDS011;60396;47.550;18.828;2023-12-29T13:04:47;13.32;;;7.50;;
72406;SDS011;60396;47.550;18.828;2023-12-29T13:07:19;13.18;;;7.05;;
72406;SDS011;60396;47.550;18.828;2023-12-29T13:09:48;13.52;;;7.70;;
72406;SDS011;60396;47.550;18.828;2023-12-29T13:12:18;16.67;;;7.47;;
72406;SDS011;60396;47.550;18.828;2023-12-29T13:14:46;14.83;;;7.97;;
72406;SDS011;60396;47.550;18.828;2023-12-29T13:17:14;14.15;;;7.82;;
72406;SDS011;60396;47.550;18.828;2023-12-29T13:19:43;17.23;;;8.80;;
72406;SDS011;60396;47.550;18.828;2023-12-29T13:22:12;16.77;;;8.48;;
72406;SDS011;60396;47.550;18.828;2023-12-29T13:24:45;18.98;;;10.07;;
72406;SDS011;60396;47.550;18.828;2023-12-29T13:27:13;19.60;;;10.47;;
72406;SDS011;60396;47.550;18.828;2023-12-29T13:29:43;20.80;;;11.38;;
72406;SDS011;60396;47.550;18.828;2023-12-29T13:32:21;19.23;;;11.50;;
72406;SDS011;60396;47.550;18.828;2023-12-29T13:42:45;23.55;;;14.35;;
72406;SDS011;60396;47.550;18.828;2023-12-29T13:45:15;21.80;;;13.38;;
72406;SDS011;60396;47.550;18.828;2023-12-29T13:47:43;25.92;;;14.63;;
72406;SDS011;60396;47.550;18.828;2023-12-29T13:50:12;24.80;;;13.27;;
72406;SDS011;60396;47.550;18.828;2023-12-29T13:52:41;22.03;;;12.20;;
72406;SDS011;60396;47.550;18.828;2023-12-29T13:55:09;21.02;;;11.80;;
72406;SDS011;60396;47.550;18.828;2023-12-29T13:57:37;18.42;;;10.57;;
72406;SDS011;60396;47.550;18.828;2023-12-29T14:03:06;20.20;;;11.02;;
72406;SDS011;60396;47.550;18.828;2023-12-29T14:05:47;20.13;;;11.80;;
72406;SDS011;60396;47.550;18.828;2023-12-29T14:08:23;19.85;;;11.05;;
72406;SDS011;60396;47.550;18.828;2023-12-29T14:10:54;21.40;;;11.55;;
72406;SDS011;60396;47.550;18.828;2023-12-29T14:13:22;20.25;;;11.90;;
72406;SDS011;60396;47.550;18.828;2023-12-29T14:15:50;22.80;;;12.68;;
72406;SDS011;60396;47.550;18.828;2023-12-29T14:23:59;35.33;;;16.75;;
72406;SDS011;60396;47.550;18.828;2023-12-29T14:26:39;26.10;;;13.20;;
72406;SDS011;60396;47.550;18.828;2023-12-29T14:29:21;25.62;;;14.40;;
72406;SDS011;60396;47.550;18.828;2023-12-29T14:31:49;38.87;;;19.97;;
72406;SDS011;60396;47.550;18.828;2023-12-29T14:34:20;30.75;;;15.35;;
72406;SDS011;60396;47.550;18.828;2023-12-29T14:36:48;21.85;;;12.30;;
72406;SDS011;60396;47.550;18.828;2023-12-29T14:39:16;19.52;;;11.30;;
72406;SDS011;60396;47.550;18.828;2023-12-29T14:41:44;17.40;;;8.88;;
72406;SDS011;60396;47.550;18.828;2023-12-29T14:44:13;16.80;;;8.27;;
72406;SDS011;60396;47.550;18.828;2023-12-29T14:46:41;13.93;;;7.80;;
72406;SDS011;60396;47.550;18.828;2023-12-29T14:49:09;14.93;;;7.43;;
72406;SDS011;60396;47.550;18.828;2023-12-29T14:51:37;14.23;;;7.72;;
72406;SDS011;60396;47.550;18.828;2023-12-29T14:54:05;15.73;;;7.95;;
72406;SDS011;60396;47.550;18.828;2023-12-29T14:56:34;19.10;;;9.13;;
72406;SDS011;60396;47.550;18.828;2023-12-29T14:59:02;20.02;;;10.57;;
72406;SDS011;60396;47.550;18.828;2023-12-29T15:01:33;19.33;;;10.30;;
72406;SDS011;60396;47.550;18.828;2023-12-29T15:04:00;18.08;;;9.90;;